Jueves, 29 de Septiembre del 2016

portal contactenos mapa del sitio buscar Revisar Correo Corporativo

|Reporte METAR por Reginal » ||Reporte TAF por Reginal » ||Reporte METAR, TAF y SIN覲TICO »

Reporte METAR por Regional

|| La Paz || Santa Cruz || Cochabamba || Beni - Pando ||

Informe METAR emitido cada hora.

Regional La Paz

ESTACIÓN

AEROPUERTO

HORA UTC

DESCRIPCIÓN

SLRY

Reyes

14-18S|67-21W

22:00

SLRY 282200Z 00000KT 9999 NSC 34/23 Q1007 A2975 HR56 RWY OPR 1 100M=

SLRQ

Rurrenabaque

14-25S|67-29W

22:00

SLRQ 282200Z 00000KT 9999 NSC 32/26 Q1007 A2976 HR69=

SLAP

Apolo

14-44S|68-24W

-

Mensaje no Recibido

SLSB

San Borja

14-51S|66-44W

23:00

SLSB 282300Z 00000KT 9999 NSC 30/24 Q1007 A2975 HR70 RWY NML=

SLLP

Internaci贸nal El Alto

16-08S|68-10W

09:00

SLLP 290900Z 09007KT 4000E VCFG FEW003 SCT010 05/03 Q1038 A3065 628.0 VCFG/NE/E/SE CI HR90 NOSIG=

SLCN

Chara帽a

17-35S|69-25W

-

Mensaje no Recibido

SLOR

Oruro

17-57S|67-04W

20:00

SLOR 282000Z 05012KT 9999 SCT020 20/M01 Q1033 A3052 654.9 HR24=

SLUY

Uyuni

20-27S|62-52W

-

SLUY 290000Z 36008KT 9999 FEW015 BKN200 11/M08 Q1034 A3054 658.3 AC HR29=

Regional Cochabamba

ESTACIÓN

AEROPUERTO

HORA UTC

DESCRIPCIÓN

SLCB

Cochabamba

17-25S|66-10W

09:00

SLCB 290900Z 09004KT 9999 FEW030 14/03 Q1026 A3031 752.5 HR46 FU NOSIG=

SLAL

Sucre (Alcantari)

19-14S|65-09W

-

SLAL 290000Z 05011KT 9999 NSC 16/03 Q1030 A3042 HR41=

SLPO

Potos铆

19-32S|65-43W

21:00

SLPO 282100Z 06010KT 9999 SCT020 18/M02 Q1036 A3059 HR26=

SLAG

Monteagudo

19-49S|63-58W

21:00

SLAG 282100Z WO ATTN=

SLVM

Villamontes

21-15S|63-24W

20:00

SLVM 282000Z 03007KT 9999 NSC 40/16 Q1006 A2972 HR25 FU=

SLTJ

Tarija

21-33S|64-42W

02:00

COR SLTJ 290200Z 00000KT 9999 NSC 19/12 Q1022 A3018 HR63 AC FU=

SLYA

Yacuiba

21-57S|63-39W

09:00

SLYA 290900Z 00000KT 9999 NSC 20/16 Q1011 A2987 HR75=

SLBJ

Bermejo

22-46S|64-18W

21:00

SLBJ 282100Z 18010KT 9999 NSC 36/22 Q1004 A2965 HR45 FU=

Regional Santa Cruz

ESTACIÓN

AEROPUERTO

HORA UTC

DESCRIPCIÓN

SLAS

Ascenci贸n de Guarayos

15-55S|63-09W

23:00

SLAS 282300Z 00000KT 8000 NSC 30/22 Q1010 A2983 HR61 FU RWY NML =

SLCP

Concepci贸n

16-08S|62-01W

22:00

SLCP 282200Z 00000KT 8000 NSC 31/22 Q1013 A2991 HR56 FU RWY NML =

SLJV

San Javier

16-16S|62-28W

22:00

SLJV 282200Z 00000KT 9999 NSC 31/24 Q1010 A2983 HR66 FU RWY NML =

SLTI

San Mat铆as

16-20S|58-24W

22:00

SLTI 282200Z 00000KT 9999 NSC 31/24 Q1015 A2997 HR64 RWY NML=

SLSI

San Ignacio de Velasco

16-23S|60-57W

23:00

SLSI 282300Z 00000KT 9999 NSC 30/24 Q1011 A2985 HR70 FU RWY NML =

SLVR

Internaci贸nal Viru Viru

17-38S|63-08W

09:00

SLVR 290900Z VRB02KT 6000 NSC 22/20 Q1011 A2986 HR88 FU NOSIG=

SLET

El Trompillo

17-48S|63-10W

23:00

SLET 282300Z 33004KT 6000 NSC 31/20 Q1009 A29.82 HR52 FU NOSIG=

SLJE

San Jos茅 de Chiquitos

17-49S|60-44W

22:00

SLJE 282200Z 00000KT 9999 NSC 33/22 Q1012 A2988 HR54 RWY NML=

SLRB

Robor茅

18-19S|59-45W

23:00

SLRB 282300Z 00000KT 9999 NSC 29/25 Q1012 A2988 HR79 RWY NML=

SLVG

Valle Grande

18-28S|64-05W

21:00

SLVG 282100Z 02006KT 9999 NSC 24/10 Q1023 A3021 HR37 FU RWY NML =

SLPS

Puerto Su谩rez

18-58S|57-49W

23:00

SLPS 282300Z 00000KT 8000 NSC 30/18 Q1011 A2986 HR50 FU=

SLCA

Camiri

20-00S|63-31W

23:00

SLCA 282300Z 36005KT 9999 NSC 31/19 Q1013 A2991 HR47 FU RWY NML=

Regional Beni

ESTACIÓN

AEROPUERTO

HORA UTC

DESCRIPCIÓN

SLGM

Guayaramer铆n

10-49S|65-20W

23:00

SLGM 282300Z 00000KT 8000 FEW020CB BKN200 29/24 Q1010 A2984 HR70 FU CB NW=

SLRI

Riberalta

11-00S|66-04W

09:00

SLRI 290900Z 00000KT 5000 FU NSC 25/24 Q1011 A2986 HR94 CI=

SLCO

Cobija

11-02S|68-47W

23:00

SLCO 282300Z 00000KT 8000 FEW030 30/25 Q1009 A2981 982.2 HR75 FU CI=

SLJO

San Joaquin

13-03S|64-39W

22:00

SLJO 282200Z 00000KT 9999 NSC 32/23 Q1012 A2991 HR60 CI RWY NML=

SLMG

San Magdalena

13-15S|64-03W

23:00

SLMG 282300Z 00000KT 9999 FEW020 SCT200 30/24 Q1011 A2985 HR69 RWY NML=

SLRA

San Ram贸n

13-15S|64-36W

22:00

SLRA 282200Z 00000KT 9999 FEW017 SCT200 34/21 Q1011 A2986 HR45 RWY NML=

SLBU

Baures

13-39S|63-42W

22:00

SLBU 282200Z 00000KT 9999 FEW020 SCT200 33/23 Q1008 A2979 HR56 RWY NML=

SLSA

Santa Ana de Yacuma

13-45S|65-26W

23:00

SLSA 282300Z 00000KT 7000 NSC 31/24 Q1008 A2977 HR65 FU CI=

SLSR

Santa Rosa

14-04S|66-47W

22:00

SLSR 282200Z WO ATTN=

SLTR

Trinidad

14-49S|64-54W

09:00

SLTR 290900Z 00000KT 8000 SCT080 24/22 Q1010 A2984 992.0 HR90 FU NOSIG=

SLSM

San Ignacio de Moxos

14-57S|65-38W

22:00

SLSM 282200Z 00000KT 9999 FEW020 34/23 Q1008 A2978 HR55 RWY NML=